sensor_id;sensor_type;location;lat;lon;timestamp;P1;durP1;ratioP1;P2;durP2;ratioP2
51194;SDS011;37259;49.972;19.850;2023-08-20T00:00:29;10.4;;;8.4;;
51194;SDS011;37259;49.972;19.850;2023-08-20T00:01:29;10.4;;;8.4;;
51194;SDS011;37259;49.972;19.850;2023-08-20T00:02:29;10.4;;;8.4;;
51194;SDS011;37259;49.972;19.850;2023-08-20T00:03:29;10.4;;;8.4;;
51194;SDS011;37259;49.972;19.850;2023-08-20T00:04:29;10.4;;;8.4;;
51194;SDS011;37259;49.972;19.850;2023-08-20T00:05:29;10.4;;;8.4;;
51194;SDS011;37259;49.972;19.850;2023-08-20T00:06:29;10.4;;;8.4;;
51194;SDS011;37259;49.972;19.850;2023-08-20T00:07:29;10.4;;;8.4;;
51194;SDS011;37259;49.972;19.850;2023-08-20T00:08:29;10.4;;;8.4;;
51194;SDS011;37259;49.972;19.850;2023-08-20T00:09:29;10.4;;;8.4;;
51194;SDS011;37259;49.972;19.850;2023-08-20T00:10:29;10.4;;;8.4;;
51194;SDS011;37259;49.972;19.850;2023-08-20T00:11:29;10.4;;;8.4;;
51194;SDS011;37259;49.972;19.850;2023-08-20T00:12:29;10.4;;;8.4;;
51194;SDS011;37259;49.972;19.850;2023-08-20T00:13:29;10.4;;;8.4;;
51194;SDS011;37259;49.972;19.850;2023-08-20T00:15:00;10.4;;;8.4;;
51194;SDS011;37259;49.972;19.850;2023-08-20T00:15:29;10.4;;;8.4;;
51194;SDS011;37259;49.972;19.850;2023-08-20T00:16:29;10.4;;;8.4;;
51194;SDS011;37259;49.972;19.850;2023-08-20T00:17:29;10.4;;;8.4;;
51194;SDS011;37259;49.972;19.850;2023-08-20T00:18:29;10.4;;;8.4;;
51194;SDS011;37259;49.972;19.850;2023-08-20T00:19:29;10.4;;;8.4;;
51194;SDS011;37259;49.972;19.850;2023-08-20T00:20:29;10.4;;;8.4;;
51194;SDS011;37259;49.972;19.850;2023-08-20T00:21:29;10.4;;;8.4;;
51194;SDS011;37259;49.972;19.850;2023-08-20T00:22:29;10.4;;;8.4;;
51194;SDS011;37259;49.972;19.850;2023-08-20T00:23:29;10.4;;;8.4;;
51194;SDS011;37259;49.972;19.850;2023-08-20T00:24:29;10.4;;;8.4;;
51194;SDS011;37259;49.972;19.850;2023-08-20T00:25:29;10.4;;;8.4;;
51194;SDS011;37259;49.972;19.850;2023-08-20T00:26:29;10.4;;;8.4;;
51194;SDS011;37259;49.972;19.850;2023-08-20T00:27:29;10.4;;;8.4;;
51194;SDS011;37259;49.972;19.850;2023-08-20T00:28:29;11.8;;;8.9;;
51194;SDS011;37259;49.972;19.850;2023-08-20T00:29:29;11.8;;;8.9;;
51194;SDS011;37259;49.972;19.850;2023-08-20T00:30:29;11.8;;;8.9;;
51194;SDS011;37259;49.972;19.850;2023-08-20T00:31:29;11.8;;;8.9;;
51194;SDS011;37259;49.972;19.850;2023-08-20T00:32:29;11.8;;;8.9;;
51194;SDS011;37259;49.972;19.850;2023-08-20T00:33:30;11.8;;;8.9;;
51194;SDS011;37259;49.972;19.850;2023-08-20T00:34:29;11.8;;;8.9;;
51194;SDS011;37259;49.972;19.850;2023-08-20T00:35:29;11.8;;;8.9;;
51194;SDS011;37259;49.972;19.850;2023-08-20T00:36:29;11.8;;;8.9;;
51194;SDS011;37259;49.972;19.850;2023-08-20T00:37:29;11.8;;;8.9;;
51194;SDS011;37259;49.972;19.850;2023-08-20T00:38:29;11.8;;;8.9;;
51194;SDS011;37259;49.972;19.850;2023-08-20T00:39:29;11.8;;;8.9;;
51194;SDS011;37259;49.972;19.850;2023-08-20T00:40:29;11.8;;;8.9;;
51194;SDS011;37259;49.972;19.850;2023-08-20T00:41:29;11.8;;;8.9;;
51194;SDS011;37259;49.972;19.850;2023-08-20T00:42:29;11.8;;;8.9;;
51194;SDS011;37259;49.972;19.850;2023-08-20T00:43:29;11.8;;;8.9;;
51194;SDS011;37259;49.972;19.850;2023-08-20T00:44:29;11.8;;;8.9;;
51194;SDS011;37259;49.972;19.850;2023-08-20T00:45:29;11.8;;;8.9;;
51194;SDS011;37259;49.972;19.850;2023-08-20T00:46:29;11.8;;;8.9;;
51194;SDS011;37259;49.972;19.850;2023-08-20T00:47:29;11.8;;;8.9;;
51194;SDS011;37259;49.972;19.850;2023-08-20T00:48:29;11.8;;;8.9;;
51194;SDS011;37259;49.972;19.850;2023-08-20T00:49:29;11.8;;;8.9;;
51194;SDS011;37259;49.972;19.850;2023-08-20T00:50:29;11.8;;;8.9;;
51194;SDS011;37259;49.972;19.850;2023-08-20T00:51:29;11.8;;;8.9;;
51194;SDS011;37259;49.972;19.850;2023-08-20T00:52:29;11.8;;;8.9;;
51194;SDS011;37259;49.972;19.850;2023-08-20T00:53:29;11.8;;;8.9;;
51194;SDS011;37259;49.972;19.850;2023-08-20T00:54:29;11.8;;;8.9;;
51194;SDS011;37259;49.972;19.850;2023-08-20T00:55:29;11.8;;;8.9;;
51194;SDS011;37259;49.972;19.850;2023-08-20T00:56:29;11.8;;;8.9;;
51194;SDS011;37259;49.972;19.850;2023-08-20T00:57:29;11.8;;;8.9;;
51194;SDS011;37259;49.972;19.850;2023-08-20T00:58:29;11.3;;;8.8;;
51194;SDS011;37259;49.972;19.850;2023-08-20T00:59:29;11.3;;;8.8;;
51194;SDS011;37259;49.972;19.850;2023-08-20T01:00:29;11.3;;;8.8;;
51194;SDS011;37259;49.972;19.850;2023-08-20T01:01:29;11.3;;;8.8;;
51194;SDS011;37259;49.972;19.850;2023-08-20T01:02:29;11.3;;;8.8;;
51194;SDS011;37259;49.972;19.850;2023-08-20T01:03:29;11.3;;;8.8;;
51194;SDS011;37259;49.972;19.850;2023-08-20T01:04:29;11.3;;;8.8;;
51194;SDS011;37259;49.972;19.850;2023-08-20T01:05:29;11.3;;;8.8;;
51194;SDS011;37259;49.972;19.850;2023-08-20T01:06:31;11.3;;;8.8;;
51194;SDS011;37259;49.972;19.850;2023-08-20T01:07:30;11.3;;;8.8;;
51194;SDS011;37259;49.972;19.850;2023-08-20T01:08:29;11.3;;;8.8;;
51194;SDS011;37259;49.972;19.850;2023-08-20T01:09:30;11.3;;;8.8;;
51194;SDS011;37259;49.972;19.850;2023-08-20T01:10:31;11.3;;;8.8;;
51194;SDS011;37259;49.972;19.850;2023-08-20T01:11:30;11.3;;;8.8;;
51194;SDS011;37259;49.972;19.850;2023-08-20T01:12:29;11.3;;;8.8;;
51194;SDS011;37259;49.972;19.850;2023-08-20T01:13:29;11.3;;;8.8;;
51194;SDS011;37259;49.972;19.850;2023-08-20T01:14:29;11.3;;;8.8;;
51194;SDS011;37259;49.972;19.850;2023-08-20T01:15:29;11.3;;;8.8;;
51194;SDS011;37259;49.972;19.850;2023-08-20T01:16:29;11.3;;;8.8;;
51194;SDS011;37259;49.972;19.850;2023-08-20T01:17:29;11.3;;;8.8;;
51194;SDS011;37259;49.972;19.850;2023-08-20T01:18:29;11.3;;;8.8;;
51194;SDS011;37259;49.972;19.850;2023-08-20T01:19:29;11.3;;;8.8;;
51194;SDS011;37259;49.972;19.850;2023-08-20T01:20:30;11.3;;;8.8;;
51194;SDS011;37259;49.972;19.850;2023-08-20T01:21:30;11.3;;;8.8;;
51194;SDS011;37259;49.972;19.850;2023-08-20T01:22:35;11.3;;;8.8;;
51194;SDS011;37259;49.972;19.850;2023-08-20T01:24:33;11.3;;;8.8;;
51194;SDS011;37259;49.972;19.850;2023-08-20T01:24:38;11.3;;;8.8;;
51194;SDS011;37259;49.972;19.850;2023-08-20T01:25:31;11.3;;;8.8;;
51194;SDS011;37259;49.972;19.850;2023-08-20T01:26:33;11.3;;;8.8;;
51194;SDS011;37259;49.972;19.850;2023-08-20T01:27:32;11.3;;;8.8;;
51194;SDS011;37259;49.972;19.850;2023-08-20T01:28:29;10.8;;;8.2;;
51194;SDS011;37259;49.972;19.850;2023-08-20T01:29:29;10.8;;;8.2;;
51194;SDS011;37259;49.972;19.850;2023-08-20T01:30:29;10.8;;;8.2;;
51194;SDS011;37259;49.972;19.850;2023-08-20T01:31:30;10.8;;;8.2;;
51194;SDS011;37259;49.972;19.850;2023-08-20T01:32:29;10.8;;;8.2;;
51194;SDS011;37259;49.972;19.850;2023-08-20T01:33:29;10.8;;;8.2;;
51194;SDS011;37259;49.972;19.850;2023-08-20T01:34:29;10.8;;;8.2;;
51194;SDS011;37259;49.972;19.850;2023-08-20T01:35:29;10.8;;;8.2;;
51194;SDS011;37259;49.972;19.850;2023-08-20T01:36:29;10.8;;;8.2;;
51194;SDS011;37259;49.972;19.850;2023-08-20T01:37:29;10.8;;;8.2;;
51194;SDS011;37259;49.972;19.850;2023-08-20T01:38:29;10.8;;;8.2;;
51194;SDS011;37259;49.972;19.850;2023-08-20T01:39:29;10.8;;;8.2;;
51194;SDS011;37259;49.972;19.850;2023-08-20T01:40:29;10.8;;;8.2;;
51194;SDS011;37259;49.972;19.850;2023-08-20T01:41:29;10.8;;;8.2;;
51194;SDS011;37259;49.972;19.850;2023-08-20T01:42:29;10.8;;;8.2;;
51194;SDS011;37259;49.972;19.850;2023-08-20T01:43:29;10.8;;;8.2;;
51194;SDS011;37259;49.972;19.850;2023-08-20T01:44:29;10.8;;;8.2;;
51194;SDS011;37259;49.972;19.850;2023-08-20T01:45:29;10.8;;;8.2;;
51194;SDS011;37259;49.972;19.850;2023-08-20T01:46:29;10.8;;;8.2;;
51194;SDS011;37259;49.972;19.850;2023-08-20T01:47:29;10.8;;;8.2;;
51194;SDS011;37259;49.972;19.850;2023-08-20T01:48:29;10.8;;;8.2;;
51194;SDS011;37259;49.972;19.850;2023-08-20T01:49:29;10.8;;;8.2;;
51194;SDS011;37259;49.972;19.850;2023-08-20T01:50:29;10.8;;;8.2;;
51194;SDS011;37259;49.972;19.850;2023-08-20T01:51:29;10.8;;;8.2;;
51194;SDS011;37259;49.972;19.850;2023-08-20T01:52:29;10.8;;;8.2;;
51194;SDS011;37259;49.972;19.850;2023-08-20T01:53:29;10.8;;;8.2;;
51194;SDS011;37259;49.972;19.850;2023-08-20T01:54:29;10.8;;;8.2;;
51194;SDS011;37259;49.972;19.850;2023-08-20T01:55:29;10.8;;;8.2;;
51194;SDS011;37259;49.972;19.850;2023-08-20T01:56:29;10.8;;;8.2;;
51194;SDS011;37259;49.972;19.850;2023-08-20T01:57:29;10.8;;;8.2;;
51194;SDS011;37259;49.972;19.850;2023-08-20T01:58:29;9.7;;;8.5;;
51194;SDS011;37259;49.972;19.850;2023-08-20T01:59:29;9.7;;;8.5;;
51194;SDS011;37259;49.972;19.850;2023-08-20T02:00:29;9.7;;;8.5;;
51194;SDS011;37259;49.972;19.850;2023-08-20T02:01:29;9.7;;;8.5;;
51194;SDS011;37259;49.972;19.850;2023-08-20T02:02:29;9.7;;;8.5;;
51194;SDS011;37259;49.972;19.850;2023-08-20T02:03:29;9.7;;;8.5;;
51194;SDS011;37259;49.972;19.850;2023-08-20T02:04:29;9.7;;;8.5;;
51194;SDS011;37259;49.972;19.850;2023-08-20T02:05:31;9.7;;;8.5;;
51194;SDS011;37259;49.972;19.850;2023-08-20T02:06:29;9.7;;;8.5;;
51194;SDS011;37259;49.972;19.850;2023-08-20T02:07:29;9.7;;;8.5;;
51194;SDS011;37259;49.972;19.850;2023-08-20T02:08:29;9.7;;;8.5;;
51194;SDS011;37259;49.972;19.850;2023-08-20T02:09:29;9.7;;;8.5;;
51194;SDS011;37259;49.972;19.850;2023-08-20T02:10:29;9.7;;;8.5;;
51194;SDS011;37259;49.972;19.850;2023-08-20T02:11:29;9.7;;;8.5;;
51194;SDS011;37259;49.972;19.850;2023-08-20T02:12:29;9.7;;;8.5;;
51194;SDS011;37259;49.972;19.850;2023-08-20T02:13:29;9.7;;;8.5;;
51194;SDS011;37259;49.972;19.850;2023-08-20T02:14:29;9.7;;;8.5;;
51194;SDS011;37259;49.972;19.850;2023-08-20T02:15:29;9.7;;;8.5;;
51194;SDS011;37259;49.972;19.850;2023-08-20T02:16:30;9.7;;;8.5;;
51194;SDS011;37259;49.972;19.850;2023-08-20T02:17:30;9.7;;;8.5;;
51194;SDS011;37259;49.972;19.850;2023-08-20T02:18:31;9.7;;;8.5;;
51194;SDS011;37259;49.972;19.850;2023-08-20T02:19:29;9.7;;;8.5;;
51194;SDS011;37259;49.972;19.850;2023-08-20T02:20:29;9.7;;;8.5;;
51194;SDS011;37259;49.972;19.850;2023-08-20T02:21:29;9.7;;;8.5;;
51194;SDS011;37259;49.972;19.850;2023-08-20T02:22:29;9.7;;;8.5;;
51194;SDS011;37259;49.972;19.850;2023-08-20T02:23:29;9.7;;;8.5;;
51194;SDS011;37259;49.972;19.850;2023-08-20T02:24:29;9.7;;;8.5;;
51194;SDS011;37259;49.972;19.850;2023-08-20T02:25:29;9.7;;;8.5;;
51194;SDS011;37259;49.972;19.850;2023-08-20T02:26:29;9.7;;;8.5;;
51194;SDS011;37259;49.972;19.850;2023-08-20T02:27:29;9.7;;;8.5;;
51194;SDS011;37259;49.972;19.850;2023-08-20T02:28:29;10.1;;;8.5;;
51194;SDS011;37259;49.972;19.850;2023-08-20T02:29:29;10.1;;;8.5;;
51194;SDS011;37259;49.972;19.850;2023-08-20T02:30:29;10.1;;;8.5;;
51194;SDS011;37259;49.972;19.850;2023-08-20T02:31:30;10.1;;;8.5;;
51194;SDS011;37259;49.972;19.850;2023-08-20T02:32:30;10.1;;;8.5;;
51194;SDS011;37259;49.972;19.850;2023-08-20T02:33:29;10.1;;;8.5;;
51194;SDS011;37259;49.972;19.850;2023-08-20T02:34:30;10.1;;;8.5;;
51194;SDS011;37259;49.972;19.850;2023-08-20T02:35:30;10.1;;;8.5;;
51194;SDS011;37259;49.972;19.850;2023-08-20T02:36:29;10.1;;;8.5;;
51194;SDS011;37259;49.972;19.850;2023-08-20T02:37:29;10.1;;;8.5;;
51194;SDS011;37259;49.972;19.850;2023-08-20T02:38:30;10.1;;;8.5;;
51194;SDS011;37259;49.972;19.850;2023-08-20T02:39:29;10.1;;;8.5;;
51194;SDS011;37259;49.972;19.850;2023-08-20T02:40:29;10.1;;;8.5;;
51194;SDS011;37259;49.972;19.850;2023-08-20T02:41:29;10.1;;;8.5;;
51194;SDS011;37259;49.972;19.850;2023-08-20T02:42:29;10.1;;;8.5;;
51194;SDS011;37259;49.972;19.850;2023-08-20T02:43:29;10.1;;;8.5;;
51194;SDS011;37259;49.972;19.850;2023-08-20T02:44:29;10.1;;;8.5;;
51194;SDS011;37259;49.972;19.850;2023-08-20T02:45:30;10.1;;;8.5;;
51194;SDS011;37259;49.972;19.850;2023-08-20T02:46:30;10.1;;;8.5;;
51194;SDS011;37259;49.972;19.850;2023-08-20T02:47:29;10.1;;;8.5;;
51194;SDS011;37259;49.972;19.850;2023-08-20T02:48:29;10.1;;;8.5;;
51194;SDS011;37259;49.972;19.850;2023-08-20T02:49:29;10.1;;;8.5;;
51194;SDS011;37259;49.972;19.850;2023-08-20T02:50:29;10.1;;;8.5;;
51194;SDS011;37259;49.972;19.850;2023-08-20T02:51:29;10.1;;;8.5;;
51194;SDS011;37259;49.972;19.850;2023-08-20T02:52:30;10.1;;;8.5;;
51194;SDS011;37259;49.972;19.850;2023-08-20T02:53:29;10.1;;;8.5;;
51194;SDS011;37259;49.972;19.850;2023-08-20T02:54:29;10.1;;;8.5;;
51194;SDS011;37259;49.972;19.850;2023-08-20T02:55:29;10.1;;;8.5;;
51194;SDS011;37259;49.972;19.850;2023-08-20T02:56:29;10.1;;;8.5;;
51194;SDS011;37259;49.972;19.850;2023-08-20T02:57:29;10.1;;;8.5;;
51194;SDS011;37259;49.972;19.850;2023-08-20T02:58:29;12.4;;;9.3;;
51194;SDS011;37259;49.972;19.850;2023-08-20T02:59:29;12.4;;;9.3;;
51194;SDS011;37259;49.972;19.850;2023-08-20T03:00:29;12.4;;;9.3;;
51194;SDS011;37259;49.972;19.850;2023-08-20T03:01:30;12.4;;;9.3;;
51194;SDS011;37259;49.972;19.850;2023-08-20T03:02:29;12.4;;;9.3;;
51194;SDS011;37259;49.972;19.850;2023-08-20T03:03:29;12.4;;;9.3;;
51194;SDS011;37259;49.972;19.850;2023-08-20T03:04:29;12.4;;;9.3;;
51194;SDS011;37259;49.972;19.850;2023-08-20T03:05:29;12.4;;;9.3;;
51194;SDS011;37259;49.972;19.850;2023-08-20T03:06:30;12.4;;;9.3;;
51194;SDS011;37259;49.972;19.850;2023-08-20T03:07:29;12.4;;;9.3;;
51194;SDS011;37259;49.972;19.850;2023-08-20T03:08:29;12.4;;;9.3;;
51194;SDS011;37259;49.972;19.850;2023-08-20T03:09:29;12.4;;;9.3;;
51194;SDS011;37259;49.972;19.850;2023-08-20T03:10:30;12.4;;;9.3;;
51194;SDS011;37259;49.972;19.850;2023-08-20T03:11:29;12.4;;;9.3;;
51194;SDS011;37259;49.972;19.850;2023-08-20T03:12:29;12.4;;;9.3;;
51194;SDS011;37259;49.972;19.850;2023-08-20T03:13:29;12.4;;;9.3;;
51194;SDS011;37259;49.972;19.850;2023-08-20T03:14:29;12.4;;;9.3;;
51194;SDS011;37259;49.972;19.850;2023-08-20T03:15:29;12.4;;;9.3;;
51194;SDS011;37259;49.972;19.850;2023-08-20T03:16:29;12.4;;;9.3;;
51194;SDS011;37259;49.972;19.850;2023-08-20T03:17:29;12.4;;;9.3;;
51194;SDS011;37259;49.972;19.850;2023-08-20T03:18:29;12.4;;;9.3;;
51194;SDS011;37259;49.972;19.850;2023-08-20T03:19:33;12.4;;;9.3;;
51194;SDS011;37259;49.972;19.850;2023-08-20T03:20:30;12.4;;;9.3;;
51194;SDS011;37259;49.972;19.850;2023-08-20T03:21:29;12.4;;;9.3;;
51194;SDS011;37259;49.972;19.850;2023-08-20T03:22:29;12.4;;;9.3;;
51194;SDS011;37259;49.972;19.850;2023-08-20T03:23:29;12.4;;;9.3;;
51194;SDS011;37259;49.972;19.850;2023-08-20T03:24:29;12.4;;;9.3;;
51194;SDS011;37259;49.972;19.850;2023-08-20T03:25:29;12.4;;;9.3;;
51194;SDS011;37259;49.972;19.850;2023-08-20T03:26:29;12.4;;;9.3;;
51194;SDS011;37259;49.972;19.850;2023-08-20T03:27:29;12.4;;;9.3;;
51194;SDS011;37259;49.972;19.850;2023-08-20T03:28:29;11.4;;;8.2;;
51194;SDS011;37259;49.972;19.850;2023-08-20T03:29:29;11.4;;;8.2;;
51194;SDS011;37259;49.972;19.850;2023-08-20T03:30:30;11.4;;;8.2;;
51194;SDS011;37259;49.972;19.850;2023-08-20T03:31:30;11.4;;;8.2;;
51194;SDS011;37259;49.972;19.850;2023-08-20T03:32:29;11.4;;;8.2;;
51194;SDS011;37259;49.972;19.850;2023-08-20T03:33:29;11.4;;;8.2;;
51194;SDS011;37259;49.972;19.850;2023-08-20T03:34:31;11.4;;;8.2;;
51194;SDS011;37259;49.972;19.850;2023-08-20T03:35:29;11.4;;;8.2;;
51194;SDS011;37259;49.972;19.850;2023-08-20T03:36:29;11.4;;;8.2;;
51194;SDS011;37259;49.972;19.850;2023-08-20T03:37:29;11.4;;;8.2;;
51194;SDS011;37259;49.972;19.850;2023-08-20T03:38:29;11.4;;;8.2;;
51194;SDS011;37259;49.972;19.850;2023-08-20T03:39:29;11.4;;;8.2;;
51194;SDS011;37259;49.972;19.850;2023-08-20T03:40:29;11.4;;;8.2;;
51194;SDS011;37259;49.972;19.850;2023-08-20T03:41:30;11.4;;;8.2;;
51194;SDS011;37259;49.972;19.850;2023-08-20T03:42:29;11.4;;;8.2;;
51194;SDS011;37259;49.972;19.850;2023-08-20T03:43:29;11.4;;;8.2;;
51194;SDS011;37259;49.972;19.850;2023-08-20T03:44:30;11.4;;;8.2;;
51194;SDS011;37259;49.972;19.850;2023-08-20T03:45:30;11.4;;;8.2;;
51194;SDS011;37259;49.972;19.850;2023-08-20T03:46:30;11.4;;;8.2;;
51194;SDS011;37259;49.972;19.850;2023-08-20T03:47:29;11.4;;;8.2;;
51194;SDS011;37259;49.972;19.850;2023-08-20T03:48:31;11.4;;;8.2;;
51194;SDS011;37259;49.972;19.850;2023-08-20T03:49:30;11.4;;;8.2;;
51194;SDS011;37259;49.972;19.850;2023-08-20T03:50:30;11.4;;;8.2;;
51194;SDS011;37259;49.972;19.850;2023-08-20T03:51:29;11.4;;;8.2;;
51194;SDS011;37259;49.972;19.850;2023-08-20T03:52:30;11.4;;;8.2;;
51194;SDS011;37259;49.972;19.850;2023-08-20T03:53:29;11.4;;;8.2;;
51194;SDS011;37259;49.972;19.850;2023-08-20T03:54:30;11.4;;;8.2;;
51194;SDS011;37259;49.972;19.850;2023-08-20T03:55:29;11.4;;;8.2;;
51194;SDS011;37259;49.972;19.850;2023-08-20T03:56:30;11.4;;;8.2;;
51194;SDS011;37259;49.972;19.850;2023-08-20T03:57:30;11.4;;;8.2;;
51194;SDS011;37259;49.972;19.850;2023-08-20T03:58:29;11.9;;;8.7;;
51194;SDS011;37259;49.972;19.850;2023-08-20T03:59:30;11.9;;;8.7;;
51194;SDS011;37259;49.972;19.850;2023-08-20T04:00:30;11.9;;;8.7;;
51194;SDS011;37259;49.972;19.850;2023-08-20T04:01:30;11.9;;;8.7;;
51194;SDS011;37259;49.972;19.850;2023-08-20T04:02:30;11.9;;;8.7;;
51194;SDS011;37259;49.972;19.850;2023-08-20T04:03:30;11.9;;;8.7;;
51194;SDS011;37259;49.972;19.850;2023-08-20T04:04:31;11.9;;;8.7;;
51194;SDS011;37259;49.972;19.850;2023-08-20T04:05:34;11.9;;;8.7;;
51194;SDS011;37259;49.972;19.850;2023-08-20T04:06:30;11.9;;;8.7;;
51194;SDS011;37259;49.972;19.850;2023-08-20T04:07:29;11.9;;;8.7;;
51194;SDS011;37259;49.972;19.850;2023-08-20T04:08:30;11.9;;;8.7;;
51194;SDS011;37259;49.972;19.850;2023-08-20T04:09:30;11.9;;;8.7;;
51194;SDS011;37259;49.972;19.850;2023-08-20T04:10:30;11.9;;;8.7;;
51194;SDS011;37259;49.972;19.850;2023-08-20T04:11:30;11.9;;;8.7;;
51194;SDS011;37259;49.972;19.850;2023-08-20T04:12:29;11.9;;;8.7;;
51194;SDS011;37259;49.972;19.850;2023-08-20T04:13:29;11.9;;;8.7;;
51194;SDS011;37259;49.972;19.850;2023-08-20T04:14:29;11.9;;;8.7;;
51194;SDS011;37259;49.972;19.850;2023-08-20T04:15:30;11.9;;;8.7;;
51194;SDS011;37259;49.972;19.850;2023-08-20T04:16:30;11.9;;;8.7;;
51194;SDS011;37259;49.972;19.850;2023-08-20T04:17:30;11.9;;;8.7;;
51194;SDS011;37259;49.972;19.850;2023-08-20T04:18:29;11.9;;;8.7;;
51194;SDS011;37259;49.972;19.850;2023-08-20T04:19:30;11.9;;;8.7;;
51194;SDS011;37259;49.972;19.850;2023-08-20T04:20:30;11.9;;;8.7;;
51194;SDS011;37259;49.972;19.850;2023-08-20T04:21:30;11.9;;;8.7;;
51194;SDS011;37259;49.972;19.850;2023-08-20T04:22:30;11.9;;;8.7;;
51194;SDS011;37259;49.972;19.850;2023-08-20T04:23:29;11.9;;;8.7;;
51194;SDS011;37259;49.972;19.850;2023-08-20T04:24:30;11.9;;;8.7;;
51194;SDS011;37259;49.972;19.850;2023-08-20T04:25:30;11.9;;;8.7;;
51194;SDS011;37259;49.972;19.850;2023-08-20T04:26:30;11.9;;;8.7;;
51194;SDS011;37259;49.972;19.850;2023-08-20T04:27:30;11.9;;;8.7;;
51194;SDS011;37259;49.972;19.850;2023-08-20T04:28:30;11.7;;;8.3;;
51194;SDS011;37259;49.972;19.850;2023-08-20T04:29:29;11.7;;;8.3;;
51194;SDS011;37259;49.972;19.850;2023-08-20T04:30:30;11.7;;;8.3;;
51194;SDS011;37259;49.972;19.850;2023-08-20T04:31:29;11.7;;;8.3;;
51194;SDS011;37259;49.972;19.850;2023-08-20T04:32:29;11.7;;;8.3;;
51194;SDS011;37259;49.972;19.850;2023-08-20T04:33:29;11.7;;;8.3;;
51194;SDS011;37259;49.972;19.850;2023-08-20T04:34:30;11.7;;;8.3;;
51194;SDS011;37259;49.972;19.850;2023-08-20T04:35:30;11.7;;;8.3;;
51194;SDS011;37259;49.972;19.850;2023-08-20T04:36:30;11.7;;;8.3;;
51194;SDS011;37259;49.972;19.850;2023-08-20T04:37:30;11.7;;;8.3;;
51194;SDS011;37259;49.972;19.850;2023-08-20T04:38:29;11.7;;;8.3;;
51194;SDS011;37259;49.972;19.850;2023-08-20T04:39:30;11.7;;;8.3;;
51194;SDS011;37259;49.972;19.850;2023-08-20T04:40:30;11.7;;;8.3;;
51194;SDS011;37259;49.972;19.850;2023-08-20T04:41:29;11.7;;;8.3;;
51194;SDS011;37259;49.972;19.850;2023-08-20T04:42:30;11.7;;;8.3;;
51194;SDS011;37259;49.972;19.850;2023-08-20T04:43:29;11.7;;;8.3;;
51194;SDS011;37259;49.972;19.850;2023-08-20T04:44:30;11.7;;;8.3;;
51194;SDS011;37259;49.972;19.850;2023-08-20T04:45:30;11.7;;;8.3;;
51194;SDS011;37259;49.972;19.850;2023-08-20T04:46:29;11.7;;;8.3;;
51194;SDS011;37259;49.972;19.850;2023-08-20T04:47:30;11.7;;;8.3;;
51194;SDS011;37259;49.972;19.850;2023-08-20T04:48:30;11.7;;;8.3;;
51194;SDS011;37259;49.972;19.850;2023-08-20T04:49:30;11.7;;;8.3;;
51194;SDS011;37259;49.972;19.850;2023-08-20T04:50:30;11.7;;;8.3;;
51194;SDS011;37259;49.972;19.850;2023-08-20T04:51:30;11.7;;;8.3;;
51194;SDS011;37259;49.972;19.850;2023-08-20T04:52:30;11.7;;;8.3;;
51194;SDS011;37259;49.972;19.850;2023-08-20T04:53:30;11.7;;;8.3;;
51194;SDS011;37259;49.972;19.850;2023-08-20T04:54:30;11.7;;;8.3;;
51194;SDS011;37259;49.972;19.850;2023-08-20T04:55:30;11.7;;;8.3;;
51194;SDS011;37259;49.972;19.850;2023-08-20T04:56:30;11.7;;;8.3;;
51194;SDS011;37259;49.972;19.850;2023-08-20T04:57:30;11.7;;;8.3;;
51194;SDS011;37259;49.972;19.850;2023-08-20T04:58:30;11.3;;;8.9;;
51194;SDS011;37259;49.972;19.850;2023-08-20T04:59:30;11.3;;;8.9;;
51194;SDS011;37259;49.972;19.850;2023-08-20T05:00:30;11.3;;;8.9;;
51194;SDS011;37259;49.972;19.850;2023-08-20T05:01:30;11.3;;;8.9;;
51194;SDS011;37259;49.972;19.850;2023-08-20T05:02:30;11.3;;;8.9;;
51194;SDS011;37259;49.972;19.850;2023-08-20T05:03:31;11.3;;;8.9;;
51194;SDS011;37259;49.972;19.850;2023-08-20T05:04:30;11.3;;;8.9;;
51194;SDS011;37259;49.972;19.850;2023-08-20T05:05:31;11.3;;;8.9;;
51194;SDS011;37259;49.972;19.850;2023-08-20T05:06:31;11.3;;;8.9;;
51194;SDS011;37259;49.972;19.850;2023-08-20T05:07:30;11.3;;;8.9;;
51194;SDS011;37259;49.972;19.850;2023-08-20T05:08:31;11.3;;;8.9;;
51194;SDS011;37259;49.972;19.850;2023-08-20T05:09:31;11.3;;;8.9;;
51194;SDS011;37259;49.972;19.850;2023-08-20T05:10:31;11.3;;;8.9;;
51194;SDS011;37259;49.972;19.850;2023-08-20T05:11:31;11.3;;;8.9;;
51194;SDS011;37259;49.972;19.850;2023-08-20T05:12:30;11.3;;;8.9;;
51194;SDS011;37259;49.972;19.850;2023-08-20T05:13:31;11.3;;;8.9;;
51194;SDS011;37259;49.972;19.850;2023-08-20T05:14:30;11.3;;;8.9;;
51194;SDS011;37259;49.972;19.850;2023-08-20T05:15:31;11.3;;;8.9;;
51194;SDS011;37259;49.972;19.850;2023-08-20T05:16:32;11.3;;;8.9;;
51194;SDS011;37259;49.972;19.850;2023-08-20T05:17:30;11.3;;;8.9;;
51194;SDS011;37259;49.972;19.850;2023-08-20T05:18:30;11.3;;;8.9;;
51194;SDS011;37259;49.972;19.850;2023-08-20T05:19:31;11.3;;;8.9;;
51194;SDS011;37259;49.972;19.850;2023-08-20T05:20:30;11.3;;;8.9;;
51194;SDS011;37259;49.972;19.850;2023-08-20T05:21:30;11.3;;;8.9;;
51194;SDS011;37259;49.972;19.850;2023-08-20T05:22:30;11.3;;;8.9;;
51194;SDS011;37259;49.972;19.850;2023-08-20T05:23:31;11.3;;;8.9;;
51194;SDS011;37259;49.972;19.850;2023-08-20T05:24:31;11.3;;;8.9;;
51194;SDS011;37259;49.972;19.850;2023-08-20T05:25:31;11.3;;;8.9;;
51194;SDS011;37259;49.972;19.850;2023-08-20T05:26:31;11.3;;;8.9;;
51194;SDS011;37259;49.972;19.850;2023-08-20T05:27:31;11.3;;;8.9;;
51194;SDS011;37259;49.972;19.850;2023-08-20T05:28:30;11.3;;;7.7;;
51194;SDS011;37259;49.972;19.850;2023-08-20T05:29:31;11.3;;;7.7;;
51194;SDS011;37259;49.972;19.850;2023-08-20T05:30:31;11.3;;;7.7;;
51194;SDS011;37259;49.972;19.850;2023-08-20T05:31:31;11.3;;;7.7;;
51194;SDS011;37259;49.972;19.850;2023-08-20T05:32:30;11.3;;;7.7;;
51194;SDS011;37259;49.972;19.850;2023-08-20T05:33:31;11.3;;;7.7;;
51194;SDS011;37259;49.972;19.850;2023-08-20T05:34:30;11.3;;;7.7;;
51194;SDS011;37259;49.972;19.850;2023-08-20T05:35:30;11.3;;;7.7;;
51194;SDS011;37259;49.972;19.850;2023-08-20T05:36:31;11.3;;;7.7;;
51194;SDS011;37259;49.972;19.850;2023-08-20T05:37:31;11.3;;;7.7;;
51194;SDS011;37259;49.972;19.850;2023-08-20T05:38:31;11.3;;;7.7;;
51194;SDS011;37259;49.972;19.850;2023-08-20T05:39:35;11.3;;;7.7;;
51194;SDS011;37259;49.972;19.850;2023-08-20T05:40:31;11.3;;;7.7;;
51194;SDS011;37259;49.972;19.850;2023-08-20T05:41:31;11.3;;;7.7;;
51194;SDS011;37259;49.972;19.850;2023-08-20T05:42:31;11.3;;;7.7;;
51194;SDS011;37259;49.972;19.850;2023-08-20T05:43:30;11.3;;;7.7;;
51194;SDS011;37259;49.972;19.850;2023-08-20T05:44:31;11.3;;;7.7;;
51194;SDS011;37259;49.972;19.850;2023-08-20T05:45:31;11.3;;;7.7;;
51194;SDS011;37259;49.972;19.850;2023-08-20T05:46:30;11.3;;;7.7;;
51194;SDS011;37259;49.972;19.850;2023-08-20T05:47:31;11.3;;;7.7;;
51194;SDS011;37259;49.972;19.850;2023-08-20T05:48:31;11.3;;;7.7;;
51194;SDS011;37259;49.972;19.850;2023-08-20T05:49:31;11.3;;;7.7;;
51194;SDS011;37259;49.972;19.850;2023-08-20T05:50:31;11.3;;;7.7;;
51194;SDS011;37259;49.972;19.850;2023-08-20T05:51:31;11.3;;;7.7;;
51194;SDS011;37259;49.972;19.850;2023-08-20T05:52:31;11.3;;;7.7;;
51194;SDS011;37259;49.972;19.850;2023-08-20T05:53:31;11.3;;;7.7;;
51194;SDS011;37259;49.972;19.850;2023-08-20T05:54:31;11.3;;;7.7;;
51194;SDS011;37259;49.972;19.850;2023-08-20T05:55:31;11.3;;;7.7;;
51194;SDS011;37259;49.972;19.850;2023-08-20T05:56:31;11.3;;;7.7;;
51194;SDS011;37259;49.972;19.850;2023-08-20T05:57:31;11.3;;;7.7;;
51194;SDS011;37259;49.972;19.850;2023-08-20T05:58:31;13.3;;;9;;
51194;SDS011;37259;49.972;19.850;2023-08-20T05:59:31;13.3;;;9;;
51194;SDS011;37259;49.972;19.850;2023-08-20T06:00:31;13.3;;;9;;
51194;SDS011;37259;49.972;19.850;2023-08-20T06:01:32;13.3;;;9;;